Latest Coastal Weather Observations for Parndana

IDS60701

Issued at 4:21 pm CST Thursday 24 August 2017 (issued every 10 minutes, with the page automatically refreshed every 10 minutes)

About coastal observations | Map of coastal stations | Coastal observations for SA | Marine services | Other Formats
Station Details ID: 022843 Name: PARNDANA CFS AWS Lat: -35.79 Lon: 137.25 Height: 165.0 m
Data from the previous 72 hours. | See also: Recent months at Parndana
Date/Time
CST
Temp
°C
Wind Pressure Rain since
9am
mm
Weather Cloud Vis
km
Sea
Height
m
Swell
Dir  Spd
kts
Gust
kts
hPa Trend Height
m
Period
s
Dir
24/04:00pm 11.1 SSW 9 13 - - 0.0 - - - - - - -
24/03:30pm 12.5 SSW 6 10 - - 0.0 - - - - - - -
24/03:00pm 11.9 SSW 9 12 - - 0.0 - - - - - - -
24/02:30pm 11.7 SSW 9 13 - - 0.0 - - - - - - -
24/02:00pm 12.9 S 10 15 - - 0.0 - - - - - - -
24/01:30pm 13.2 SW 9 13 - - 0.0 - - - - - - -
24/01:00pm 12.9 SSW 10 12 - - 0.0 - - - - - - -
24/12:30pm 12.7 SSW 8 13 - - 0.0 - - - - - - -
24/12:00pm 12.3 SSW 8 12 - - 0.0 - - - - - - -
24/11:30am 11.6 S 8 12 - - 0.0 - - - - - - -
24/11:00am 11.6 S 8 12 - - 0.0 - - - - - - -
24/10:30am 10.9 SSW 8 12 - - 0.0 - - - - - - -
24/10:00am 11.0 SW 9 14 - - 0.0 - - - - - - -
24/09:30am 9.8 SW 6 8 - - 0.0 - - - - - - -
24/09:00am 9.9 WSW 6 8 - - 0.4 - - - - - - -
24/08:30am 8.3 W 6 9 - - 0.4 - - - - - - -
24/08:00am 8.3 WSW 10 12 - - 0.4 - - - - - - -
24/07:30am 8.5 SW 6 9 - - 0.4 - - - - - - -
24/07:00am 7.6 WSW 11 15 - - 0.4 - - - - - - -
24/06:30am 5.5 W 6 7 - - 0.4 - - - - - - -
24/06:00am 6.8 WSW 5 5 - - 0.4 - - - - - - -
24/05:30am 7.0 W 6 8 - - 0.4 - - - - - - -
24/05:00am 6.9 WSW 6 7 - - 0.4 - - - - - - -
24/04:30am 6.5 WSW 6 8 - - 0.4 - - - - - - -
24/04:00am 6.8 WSW 5 6 - - 0.4 - - - - - - -
24/03:30am 6.8 WSW 4 5 - - 0.4 - - - - - - -
24/03:00am 7.1 WSW 5 6 - - 0.4 - - - - - - -
24/02:30am 6.4 WSW 5 6 - - 0.4 - - - - - - -
24/02:00am 5.5 W 6 7 - - 0.4 - - - - - - -
24/01:30am 6.8 WSW 7 9 - - 0.2 - - - - - - -
24/01:00am 6.6 SW 5 5 - - 0.2 - - - - - - -
24/12:30am 7.5 SW 4 5 - - 0.2 - - - - - - -
24/12:00am 5.5 W 5 7 - - 0.2 - - - - - - -
 
Date/Time
CST
Temp
°C
Wind Pressure Rain since
9am
mm
Weather Cloud Vis
km
Sea
Height
m
Swell
Dir  Spd
kts
Gust
kts
hPa Trend Height
m
Period
s
Dir
23/11:30pm 6.0 W 4 5 - - 0.2 - - - - - - -
23/11:00pm 7.5 SW 4 4 - - 0.2 - - - - - - -
23/10:30pm 7.7 SW 5 7 - - 0.2 - - - - - - -
23/10:00pm 7.5 WSW 5 8 - - 0.2 - - - - - - -
23/09:30pm 8.1 WSW 6 8 - - 0.2 - - - - - - -
23/09:00pm 7.0 W 4 6 - - 0.2 - - - - - - -
23/08:30pm 8.0 WSW 6 9 - - 0.2 - - - - - - -
23/08:00pm 7.1 WSW 4 5 - - 0.2 - - - - - - -
23/07:30pm 7.8 SW 5 7 - - 0.2 - - - - - - -
23/07:00pm 8.5 SW 7 10 - - 0.2 - - - - - - -
23/06:30pm 8.6 SW 8 11 - - 0.2 - - - - - - -
23/06:00pm 9.7 SW 10 14 - - 0.2 - - - - - - -
23/05:30pm 11.0 SW 9 14 - - 0.2 - - - - - - -
23/05:00pm 10.8 SW 10 13 - - 0.2 - - - - - - -
23/04:30pm 12.1 SSW 10 14 - - 0.2 - - - - - - -
23/04:00pm 11.6 SSW 11 15 - - 0.2 - - - - - - -
23/03:30pm 12.7 SW 13 19 - - 0.2 - - - - - - -
23/03:00pm 13.5 SW 13 18 - - 0.2 - - - - - - -
23/02:30pm 12.9 SW 14 19 - - 0.2 - - - - - - -
23/02:00pm 13.2 SW 15 20 - - 0.2 - - - - - - -
23/01:30pm 12.6 SSW 16 22 - - 0.2 - - - - - - -
23/01:00pm 13.1 SW 13 19 - - 0.2 - - - - - - -
23/12:30pm 13.3 SW 14 19 - - 0.2 - - - - - - -
23/12:00pm 13.4 SSW 15 21 - - 0.2 - - - - - - -
23/11:30am 13.5 SW 14 19 - - 0.2 - - - - - - -
23/11:00am 13.3 SW 15 22 - - 0.2 - - - - - - -
23/10:30am 12.9 SW 16 25 - - 0.2 - - - - - - -
23/10:00am 13.0 SW 16 21 - - 0.0 - - - - - - -
23/09:30am 12.8 WSW 15 20 - - 0.0 - - - - - - -
23/09:00am 12.5 WSW 13 19 - - 3.6 - - - - - - -
23/08:30am 12.9 W 13 18 - - 3.6 - - - - - - -
23/08:00am 11.8 W 11 14 - - 3.6 - - - - - - -
23/07:30am 10.8 W 10 13 - - 3.6 - - - - - - -
23/07:00am 10.8 W 9 12 - - 3.6 - - - - - - -
23/06:30am 11.1 WNW 10 15 - - 3.6 - - - - - - -
23/06:00am 10.3 NW 7 9 - - 2.6 Recent precip. - - - - - -
23/05:30am 10.7 WNW 9 15 - - 2.6 - - - - - - -
23/05:00am 9.6 NW 6 8 - - 1.4 - - - - - - -
23/04:30am 8.9 NNW 5 5 - - 1.4 - - - - - - -
23/04:00am 8.8 NW 6 7 - - 1.4 - - - - - - -
23/03:30am 8.8 NW 6 7 - - 1.4 - - - - - - -
23/03:00am 9.2 NW 7 9 - - 1.4 - - - - - - -
23/02:30am 8.6 NW 7 8 - - 1.4 - - - - - - -
23/02:00am 8.3 NW 6 8 - - 1.4 - - - - - - -
23/01:30am 8.1 WNW 6 7 - - 1.4 - - - - - - -
23/01:00am 8.8 NW 6 7 - - 1.4 - - - - - - -
23/12:30am 9.1 NW 7 8 - - 1.2 - - - - - - -
23/12:00am 9.4 NW 7 8 - - 1.2 - - - - - - -
 
Date/Time
CST
Temp
°C
Wind Pressure Rain since
9am
mm
Weather Cloud Vis
km
Sea
Height
m
Swell
Dir  Spd
kts
Gust
kts
hPa Trend Height
m
Period
s
Dir
22/11:30pm 9.8 NW 6 7 - - 1.2 - - - - - - -
22/11:00pm 10.1 NNW 4 6 - - 1.2 - - - - - - -
22/10:30pm 9.6 N 5 7 - - 1.2 - - - - - - -
22/10:00pm 10.2 N 5 6 - - 1.2 - - - - - - -
22/09:30pm 10.7 NNW 7 8 - - 1.2 - - - - - - -
22/09:00pm 10.9 NNW 6 8 - - 1.2 Rain - - - - - -
22/08:30pm 10.7 NW 7 8 - - 1.0 - - - - - - -
22/08:00pm 10.8 NW 5 5 - - 1.0 - - - - - - -
22/07:30pm 10.1 WNW 5 6 - - 1.0 - - - - - - -
22/07:00pm 11.4 NW 9 15 - - 1.0 - - - - - - -
22/06:30pm 11.6 NW 5 7 - - 0.8 - - - - - - -
22/06:00pm 12.3 WNW 5 8 - - 0.8 - - - - - - -
22/05:30pm 12.7 WNW 7 10 - - 0.8 - - - - - - -
22/05:00pm 12.6 WNW 9 11 - - 0.8 - - - - - - -
22/04:30pm 13.6 WNW 7 10 - - 0.8 - - - - - - -
22/04:00pm 13.2 NW 10 15 - - 0.8 - - - - - - -
22/03:30pm 12.7 NW 11 14 - - 0.8 - - - - - - -
22/03:00pm 12.6 WNW 8 11 - - 0.8 Recent precip. - - - - - -
22/02:30pm 12.1 W 6 10 - - 0.8 - - - - - - -
22/02:00pm 12.2 NW 13 20 - - 0.6 - - - - - - -
22/01:30pm 13.4 NW 12 16 - - 0.0 - - - - - - -
22/01:00pm 14.6 NW 13 19 - - 0.0 - - - - - - -
22/12:30pm 14.4 NW 14 19 - - 0.0 - - - - - - -
22/12:00pm 14.4 NW 14 19 - - 0.0 - - - - - - -
22/11:30am 14.7 NW 15 20 - - 0.0 - - - - - - -
22/11:00am 13.6 NW 12 17 - - 0.0 - - - - - - -
22/10:30am 14.6 NW 12 17 - - 0.0 - - - - - - -
22/10:00am 13.9 NW 13 18 - - 0.0 - - - - - - -
22/09:30am 13.5 NW 13 19 - - 0.0 - - - - - - -
22/09:00am 13.1 NW 9 13 - - 0.2 - - - - - - -
22/08:30am 12.1 NW 8 11 - - 0.2 - - - - - - -
22/08:00am 10.8 NW 8 10 - - 0.2 - - - - - - -
22/07:30am 10.4 NW 6 7 - - 0.2 - - - - - - -
22/07:00am 10.2 NW 6 8 - - 0.2 - - - - - - -
22/06:30am 10.4 WNW 7 8 - - 0.2 - - - - - - -
22/06:00am 10.0 WNW 6 7 - - 0.2 - - - - - - -
22/05:30am 9.7 W 5 5 - - 0.2 - - - - - - -
22/05:00am 9.8 W 4 6 - - 0.2 - - - - - - -
22/04:30am 9.7 W 5 5 - - 0.2 - - - - - - -
22/04:00am 9.9 W 5 6 - - 0.2 - - - - - - -
22/03:30am 9.6 NW 4 5 - - 0.2 - - - - - - -
22/03:00am 9.5 NW 5 5 - - 0.2 - - - - - - -
22/02:30am 9.5 NW 4 5 - - 0.2 - - - - - - -
22/02:00am 9.6 NW 2 3 - - 0.2 - - - - - - -
22/01:30am 9.6 NW 2 3 - - 0.2 - - - - - - -
22/01:00am 9.7 NW 3 3 - - 0.2 - - - - - - -
22/12:30am 10.0 WSW 4 5 - - 0.2 - - - - - - -
22/12:00am 9.8 WSW 4 7 - - 0.2 - - - - - - -
 
Date/Time
CST
Temp
°C
Wind Pressure Rain since
9am
mm
Weather Cloud Vis
km
Sea
Height
m
Swell
Dir  Spd
kts
Gust
kts
hPa Trend Height
m
Period
s
Dir
21/11:30pm 10.1 WSW 5 10 - - 0.2 - - - - - - -
21/11:00pm 10.1 SW 6 9 - - 0.2 - - - - - - -
21/10:30pm 10.3 SW 9 12 - - 0.2 - - - - - - -
21/10:00pm 10.0 SW 5 8 - - 0.2 - - - - - - -
21/09:30pm 10.1 WSW 9 12 - - 0.2 - - - - - - -
21/09:00pm 10.2 WSW 7 9 - - 0.2 - - - - - - -
21/08:30pm 9.9 WSW 5 6 - - 0.2 - - - - - - -
21/08:00pm 10.1 SW 5 7 - - 0.2 - - - - - - -
21/07:30pm 10.2 SW 7 9 - - 0.2 - - - - - - -
21/07:00pm 10.4 SW 5 7 - - 0.2 - - - - - - -
21/06:30pm 9.6 SW 5 7 - - 0.0 - - - - - - -
21/06:00pm 10.4 SW 7 11 - - 0.0 - - - - - - -
21/05:30pm 11.1 SSW 8 13 - - 0.0 - - - - - - -
21/05:00pm 11.7 SSW 11 16 - - 0.0 - - - - - - -
21/04:30pm 12.2 SSW 10 13 - - 0.0 - - - - - - -

Other Formats:

Comma delimited format used in spreadsheet applications
http://www.bom.gov.au/fwo/IDS60701/IDS60701.94807.axf

JavaScript Object Notation format (JSON) in row-major order
http://www.bom.gov.au/fwo/IDS60701/IDS60701.94807.json